Time;durP1;ratioP1;P1;durP2;ratioP2;P2;SDS_P1;SDS_P2;PMS_P1;PMS_P2;Temp;Humidity;BMP_temperature;BMP_pressure;BME280_temperature;BME280_humidity;BME280_pressure;Samples;Min_cycle;Max_cycle;Signal;HPM_P1;HPM_P2
2023/01/23 00:02:13;;;;;;;24.67;15.57;;;;;;;;;;5039624;28;20192;-82
2023/01/23 00:04:40;;;;;;;19.13;12.85;;;;;;;;;;5039906;28;20195;-82
2023/01/23 00:07:06;;;;;;;25.63;15.18;;;2.40;53.30;;;;;;5039218;28;20202;-82
2023/01/23 00:09:33;;;;;;;20.23;14.60;;;2.80;13.60;;;;;;5036334;28;20211;-84
2023/01/23 00:12:00;;;;;;;25.08;14.05;;;1.90;1.00;;;;;;5023282;28;20235;-85
2023/01/23 00:14:28;;;;;;;21.30;14.25;;;2.10;1.00;;;;;;5027842;28;20205;-83
2023/01/23 00:16:55;;;;;;;26.05;15.52;;;1.90;1.00;;;;;;5025419;28;20205;-84
2023/01/23 00:19:22;;;;;;;24.48;15.80;;;2.10;1.00;;;;;;5022934;28;20208;-84
2023/01/23 00:21:49;;;;;;;25.67;14.30;;;;;;;;;;5023210;28;20593;-84
2023/01/23 00:24:16;;;;;;;22.90;12.93;;;1.90;1.00;;;;;;5022046;28;20208;-84
2023/01/23 00:26:43;;;;;;;28.90;15.40;;;2.90;62.50;;;;;;5022571;28;20552;-84
2023/01/23 00:29:09;;;;;;;27.33;16.10;;;1.80;2.40;;;;;;5023689;28;20204;-84
2023/01/23 00:31:39;;;;;;;29.50;15.13;;;2.10;1.00;;;;;;5023037;28;20232;-84
2023/01/23 00:34:07;;;;;;;29.83;15.77;;;2.10;4.90;;;;;;5024252;28;20204;-84
2023/01/23 00:36:37;;;;;;;27.98;14.90;;;1.70;1.00;;;;;;5023830;28;20211;-84
2023/01/23 00:39:06;;;;;;;27.02;15.38;;;2.10;4.60;;;;;;5023626;28;20268;-84
2023/01/23 00:41:33;;;;;;;24.52;14.65;;;2.00;1.00;;;;;;5023590;28;20232;-84
2023/01/23 00:44:01;;;;;;;24.25;15.18;;;1.00;52.80;;;;;;5021805;28;20215;-86
2023/01/23 00:46:27;;;;;;;24.85;15.23;;;1.70;9.90;;;;;;5023632;28;20201;-84
2023/01/23 00:48:56;;;;;;;24.92;15.25;;;1.80;9.70;;;;;;5023285;28;20200;-84
2023/01/23 00:51:23;;;;;;;30.88;16.00;;;;;;;;;;5025454;28;20316;-84
2023/01/23 00:53:50;;;;;;;25.42;14.23;;;;;;;;;;5023005;28;20228;-84
2023/01/23 00:56:18;;;;;;;26.35;15.27;;;;;;;;;;5023618;28;20203;-83
2023/01/23 00:58:44;;;;;;;27.50;16.38;;;2.40;63.20;;;;;;5023995;28;20219;-83
2023/01/23 01:01:12;;;;;;;21.42;13.50;;;2.10;16.70;;;;;;5023957;28;20224;-83
2023/01/23 01:03:39;;;;;;;25.08;14.63;;;2.30;66.60;;;;;;5023172;28;20209;-83
2023/01/23 01:06:08;;;;;;;29.75;16.02;;;2.10;1.00;;;;;;5027793;28;20213;-83
2023/01/23 01:08:35;;;;;;;27.63;17.40;;;1.90;61.90;;;;;;5029925;28;20205;-83
2023/01/23 01:11:02;;;;;;;25.75;15.60;;;;;;;;;;5023332;28;20247;-83
2023/01/23 01:13:29;;;;;;;26.55;15.35;;;;;;;;;;5023342;28;20311;-83
2023/01/23 01:15:56;;;;;;;32.22;15.07;;;1.80;20.70;;;;;;5022733;28;20209;-83
2023/01/23 01:18:23;;;;;;;28.38;15.43;;;1.90;5.80;;;;;;5018075;28;20207;-83
2023/01/23 01:20:50;;;;;;;29.10;16.30;;;;;;;;;;5018700;28;20225;-83
2023/01/23 01:23:19;;;;;;;25.58;16.55;;;2.10;1.00;;;;;;5018980;28;20268;-83
2023/01/23 01:25:46;;;;;;;25.60;15.15;;;2.30;5.10;;;;;;5019153;28;20272;-83
2023/01/23 01:28:13;;;;;;;33.50;17.23;;;2.00;1.00;;;;;;5025655;28;20212;-85
2023/01/23 01:30:40;;;;;;;25.77;17.08;;;1.90;12.10;;;;;;5023119;28;20243;-84
2023/01/23 01:33:07;;;;;;;26.60;14.85;;;;;;;;;;5020413;28;20710;-84
2023/01/23 01:35:35;;;;;;;28.15;15.55;;;2.10;25.30;;;;;;5024298;28;20218;-83
2023/01/23 01:38:01;;;;;;;24.17;14.38;;;1.80;55.70;;;;;;5038887;28;20207;-84
2023/01/23 01:40:33;;;;;;;28.45;15.38;;;2.10;1.00;;;;;;5033290;28;20284;-84
2023/01/23 01:43:03;;;;;;;27.90;15.43;;;1.80;4.30;;;;;;5024870;28;20276;-83
2023/01/23 01:46:03;;;;;;;25.13;15.88;;;1.90;11.00;;;;;;5020402;28;20239;-84
2023/01/23 01:48:33;;;;;;;25.55;14.90;;;2.00;1.00;;;;;;5019790;28;20189;-83
2023/01/23 01:51:02;;;;;;;25.77;14.90;;;2.20;1.00;;;;;;5021283;28;20224;-82
2023/01/23 01:53:30;;;;;;;33.35;16.67;;;2.50;2.60;;;;;;5022689;28;20225;-83
2023/01/23 01:55:59;;;;;;;23.80;15.00;;;2.20;1.00;;;;;;5021994;28;20266;-83
2023/01/23 01:58:27;;;;;;;27.35;16.20;;;1.90;48.10;;;;;;5020990;28;20258;-84
2023/01/23 02:00:55;;;;;;;27.88;15.85;;;2.00;1.00;;;;;;5022507;28;20224;-84
2023/01/23 02:03:23;;;;;;;28.42;14.95;;;2.10;1.00;;;;;;5025702;28;20228;-84
2023/01/23 02:05:50;;;;;;;25.05;14.88;;;2.10;1.00;;;;;;5027171;28;20264;-84
2023/01/23 02:08:22;;;;;;;26.58;15.13;;;2.20;1.00;;;;;;5021602;28;20222;-84
2023/01/23 02:10:50;;;;;;;22.88;14.80;;;2.40;8.10;;;;;;5022037;28;20225;-84
2023/01/23 02:13:29;;;;;;;25.52;14.73;;;2.10;1.00;;;;;;5019618;28;20224;-82
2023/01/23 02:15:57;;;;;;;28.50;15.63;;;2.10;1.00;;;;;;5019013;28;20212;-83
2023/01/23 02:18:25;;;;;;;26.73;15.75;;;3.50;1.00;;;;;;5020432;28;20209;-83
2023/01/23 02:20:54;;;;;;;32.92;16.48;;;2.10;1.00;;;;;;5033178;28;20312;-82
2023/01/23 02:23:32;;;;;;;27.15;15.45;;;2.00;31.70;;;;;;5036694;28;20224;-83
2023/01/23 02:26:03;;;;;;;25.38;15.40;;;1.90;1.00;;;;;;5036785;28;20204;-82
2023/01/23 02:28:41;;;;;;;28.48;14.20;;;2.40;1.00;;;;;;5033726;28;20228;-83
2023/01/23 02:31:08;;;;;;;28.52;15.90;;;2.20;1.00;;;;;;5031778;28;20268;-83
2023/01/23 02:33:48;;;;;;;30.08;16.55;;;2.10;1.00;;;;;;5029542;28;20255;-83
2023/01/23 02:36:16;;;;;;;21.58;14.23;;;2.20;1.00;;;;;;5036091;28;20193;-82
2023/01/23 02:38:51;;;;;;;29.80;14.30;;;2.20;1.00;;;;;;5036986;28;20239;-83
2023/01/23 02:41:25;;;;;;;32.85;16.67;;;2.10;1.00;;;;;;5027457;28;20220;-85
2023/01/23 02:43:55;;;;;;;24.73;15.07;;;1.90;1.00;;;;;;5025798;28;20234;-84
2023/01/23 02:46:24;;;;;;;23.90;14.18;;;1.80;21.50;;;;;;5025681;28;20272;-84
2023/01/23 02:48:52;;;;;;;26.70;14.02;;;1.70;1.00;;;;;;5025290;28;20211;-84
2023/01/23 02:51:19;;;;;;;23.88;15.65;;;;;;;;;;5024816;28;20282;-83
2023/01/23 02:53:46;;;;;;;31.23;16.90;;;1.80;1.00;;;;;;5025356;28;20251;-84
2023/01/23 02:56:14;;;;;;;26.55;14.95;;;2.00;1.00;;;;;;5024722;28;20239;-85
2023/01/23 03:01:28;;;;;;;26.67;16.05;;;;;;;;;;5026563;28;20251;-84
2023/01/23 03:04:02;;;;;;;33.65;17.98;;;2.20;1.00;;;;;;5026597;28;20287;-84
2023/01/23 03:06:34;;;;;;;29.85;14.90;;;2.20;1.00;;;;;;5025914;28;20197;-84
2023/01/23 03:09:11;;;;;;;30.23;16.10;;;2.50;1.00;;;;;;5026360;28;20189;-84
2023/01/23 03:11:40;;;;;;;30.48;16.77;;;2.20;1.00;;;;;;5026493;28;20319;-83
2023/01/23 03:14:10;;;;;;;32.35;16.42;;;2.20;1.00;;;;;;5034126;28;20284;-84
2023/01/23 03:16:37;;;;;;;33.45;15.98;;;2.50;1.00;;;;;;5026329;28;20268;-84
2023/01/23 03:19:07;;;;;;;32.45;17.77;;;2.50;1.00;;;;;;5031902;28;20200;-85
2023/01/23 03:21:36;;;;;;;31.67;16.58;;;2.10;1.00;;;;;;5028128;28;20248;-84
2023/01/23 03:24:04;;;;;;;29.90;16.40;;;1.20;1.00;;;;;;5031286;28;20204;-84
2023/01/23 03:26:31;;;;;;;30.17;17.58;;;1.90;1.00;;;;;;5037538;28;20215;-82
2023/01/23 03:31:44;;;;;;;22.25;14.48;;;2.10;1.00;;;;;;5039866;28;20283;-81
2023/01/23 03:34:11;;;;;;;26.50;16.10;;;2.00;1.00;;;;;;5039922;28;20251;-82
2023/01/23 03:36:39;;;;;;;31.20;17.15;;;3.00;1.00;;;;;;5038682;28;20219;-83
2023/01/23 03:41:52;;;;;;;25.70;14.18;;;1.90;1.00;;;;;;5032967;28;20222;-85
2023/01/23 03:44:20;;;;;;;26.95;15.77;;;2.20;1.00;;;;;;5027477;28;20228;-85
2023/01/23 03:46:50;;;;;;;30.75;16.75;;;1.90;1.00;;;;;;5024105;28;20244;-84
2023/01/23 03:49:17;;;;;;;29.55;16.27;;;2.30;1.00;;;;;;5025233;28;20635;-85
2023/01/23 03:51:45;;;;;;;32.08;16.85;;;;;;;;;;5027562;28;20311;-85
2023/01/23 03:54:13;;;;;;;27.35;16.30;;;2.00;1.00;;;;;;5025353;28;20739;-83
2023/01/23 03:56:40;;;;;;;26.90;16.35;;;;;;;;;;5025665;28;20204;-84
2023/01/23 03:59:08;;;;;;;29.40;17.67;;;2.50;1.00;;;;;;5024852;28;20573;-82
2023/01/23 04:01:35;;;;;;;25.65;14.63;;;2.10;1.00;;;;;;5025397;28;20292;-83
2023/01/23 04:04:03;;;;;;;26.05;15.85;;;2.00;1.00;;;;;;5025413;28;20207;-83
2023/01/23 04:06:31;;;;;;;32.25;17.08;;;;;;;;;;5026057;28;20272;-83
2023/01/23 04:08:57;;;;;;;25.90;14.63;;;2.30;1.00;;;;;;5024288;28;20291;-81
2023/01/23 04:11:25;;;;;;;27.67;18.73;;;4.00;1.00;;;;;;5022471;28;20439;-84
2023/01/23 04:13:52;;;;;;;30.77;17.15;;;1.90;1.00;;;;;;5024455;28;20224;-82
2023/01/23 04:16:20;;;;;;;31.30;18.13;;;;;;;;;;5023955;28;20239;-84
2023/01/23 04:18:47;;;;;;;29.67;17.25;;;1.70;1.00;;;;;;5027160;28;20228;-81
2023/01/23 04:21:16;;;;;;;28.83;16.15;;;2.00;1.00;;;;;;5035607;28;20260;-82
2023/01/23 04:23:43;;;;;;;32.47;17.15;;;;;;;;;;5035406;28;20224;-82
2023/01/23 04:26:09;;;;;;;29.30;15.65;;;2.20;1.00;;;;;;5025843;28;20264;-84
2023/01/23 04:28:36;;;;;;;28.50;17.48;;;1.90;1.00;;;;;;5024181;28;20204;-84
2023/01/23 04:31:03;;;;;;;28.95;15.77;;;2.30;1.00;;;;;;5023696;28;20240;-84
2023/01/23 04:33:30;;;;;;;28.80;16.17;;;1.90;1.00;;;;;;5024203;28;20220;-84
2023/01/23 04:35:59;;;;;;;28.10;16.58;;;2.30;1.00;;;;;;5023348;28;20242;-83
2023/01/23 04:38:29;;;;;;;32.33;19.83;;;2.40;1.00;;;;;;5022887;28;20211;-84
2023/01/23 04:40:56;;;;;;;34.65;16.77;;;2.30;1.00;;;;;;5020646;28;20247;-83
2023/01/23 04:43:24;;;;;;;31.65;17.50;;;2.00;1.00;;;;;;5024866;28;20252;-84
2023/01/23 04:45:51;;;;;;;26.65;15.80;;;1.80;1.00;;;;;;5024390;28;20663;-83
2023/01/23 04:48:18;;;;;;;26.45;14.95;;;;;;;;;;5037032;28;20268;-84
2023/01/23 04:50:45;;;;;;;27.00;17.20;;;2.40;1.00;;;;;;5037827;28;20276;-85
2023/01/23 04:53:12;;;;;;;22.55;15.38;;;1.50;1.00;;;;;;5027217;28;20223;-84
2023/01/23 04:55:41;;;;;;;25.92;16.52;;;2.10;1.00;;;;;;5025713;28;20205;-84
2023/01/23 04:58:10;;;;;;;30.95;17.23;;;;;;;;;;5024012;28;20239;-84
2023/01/23 05:00:37;;;;;;;28.35;16.08;;;;;;;;;;5023757;28;20235;-83
2023/01/23 05:03:04;;;;;;;26.55;16.02;;;;;;;;;;5025921;28;20264;-84
2023/01/23 05:05:31;;;;;;;29.55;17.60;;;2.70;1.00;;;;;;5024099;28;20218;-84
2023/01/23 05:07:58;;;;;;;31.52;16.45;;;;;;;;;;5023149;28;20291;-83
2023/01/23 05:10:26;;;;;;;27.80;17.33;;;;;;;;;;5027130;28;20303;-85
2023/01/23 05:12:54;;;;;;;30.75;16.55;;;2.00;1.00;;;;;;5034705;28;20235;-83
2023/01/23 05:15:21;;;;;;;30.92;17.30;;;1.70;1.00;;;;;;5034842;28;20243;-83
2023/01/23 05:17:48;;;;;;;26.38;15.43;;;4.40;1.00;;;;;;5034176;28;20211;-83
2023/01/23 05:20:15;;;;;;;30.85;17.10;;;;;;;;;;5033320;28;20267;-84
2023/01/23 05:22:51;;;;;;;27.98;16.38;;;2.90;1.00;;;;;;5032203;28;20211;-82
2023/01/23 05:25:18;;;;;;;32.20;17.27;;;;;;;;;;5034217;28;20448;-83
2023/01/23 05:27:45;;;;;;;33.25;18.20;;;;;;;;;;5029428;28;20227;-84
2023/01/23 05:30:14;;;;;;;33.53;19.50;;;;;;;;;;5047346;22;20243;-84
2023/01/23 05:32:41;;;;;;;28.85;17.05;;;2.50;1.00;;;;;;5036262;28;20280;-84
2023/01/23 05:35:09;;;;;;;34.03;16.45;;;2.00;1.00;;;;;;5036753;28;20223;-84
2023/01/23 05:37:35;;;;;;;31.55;18.83;;;2.20;1.00;;;;;;5037374;28;20216;-83
2023/01/23 05:40:03;;;;;;;39.22;18.85;;;2.10;1.00;;;;;;5034720;28;20292;-84
2023/01/23 05:42:30;;;;;;;36.38;21.70;;;2.20;1.00;;;;;;5024696;28;20213;-83
2023/01/23 05:44:57;;;;;;;30.80;19.10;;;;;;;;;;5023414;28;20283;-83
2023/01/23 05:47:26;;;;;;;28.85;16.08;;;2.20;1.00;;;;;;5023310;28;20295;-84
2023/01/23 05:49:53;;;;;;;27.42;16.88;;;2.20;1.00;;;;;;5022066;28;20254;-85
2023/01/23 05:52:20;;;;;;;32.88;16.40;;;;;;;;;;5027489;28;20234;-84
2023/01/23 05:54:47;;;;;;;34.45;18.15;;;2.50;1.00;;;;;;5026224;28;20679;-84
2023/01/23 05:57:14;;;;;;;32.10;18.38;;;2.40;1.00;;;;;;5023635;28;20303;-84
2023/01/23 05:59:41;;;;;;;32.13;17.83;;;1.90;1.00;;;;;;5019420;28;20204;-83
2023/01/23 06:02:08;;;;;;;33.13;17.23;;;2.10;1.00;;;;;;5018351;28;20224;-84
2023/01/23 06:04:36;;;;;;;33.90;18.65;;;1.80;1.00;;;;;;5018545;28;20212;-83
2023/01/23 06:07:03;;;;;;;31.42;17.90;;;1.90;1.00;;;;;;5022855;28;20648;-83
2023/01/23 06:09:30;;;;;;;30.20;16.60;;;;;;;;;;5024127;28;20208;-83
2023/01/23 06:11:57;;;;;;;34.38;18.05;;;2.10;1.00;;;;;;5030897;28;20231;-84
2023/01/23 06:14:23;;;;;;;29.88;18.60;;;2.30;1.00;;;;;;5028275;28;20239;-83
2023/01/23 06:16:50;;;;;;;30.98;16.63;;;2.00;1.00;;;;;;5025480;28;20246;-83
2023/01/23 06:19:17;;;;;;;34.60;18.48;;;;;;;;;;5024746;28;20208;-84
2023/01/23 06:21:46;;;;;;;38.58;18.25;;;;;;;;;;5023535;28;20304;-83
2023/01/23 06:24:13;;;;;;;34.55;18.27;;;2.20;1.00;;;;;;5031607;28;20200;-84
2023/01/23 06:26:42;;;;;;;31.38;17.13;;;;;;;;;;5038663;28;20215;-84
2023/01/23 06:29:09;;;;;;;33.47;18.10;;;2.30;1.00;;;;;;5025939;28;20235;-84
2023/01/23 06:31:36;;;;;;;29.85;15.93;;;2.40;1.00;;;;;;5023656;28;20238;-84
2023/01/23 06:34:03;;;;;;;33.67;17.10;;;2.10;1.00;;;;;;5024955;28;20319;-81
2023/01/23 06:36:30;;;;;;;33.78;17.55;;;2.30;1.00;;;;;;5023561;28;20678;-82
2023/01/23 06:38:58;;;;;;;30.35;15.82;;;2.40;1.00;;;;;;5022382;28;20215;-82
2023/01/23 06:41:26;;;;;;;32.70;17.30;;;;;;;;;;5021884;28;20244;-83
2023/01/23 06:43:53;;;;;;;28.85;16.20;;;1.90;1.00;;;;;;5023215;28;20209;-83
2023/01/23 06:46:21;;;;;;;27.90;17.73;;;;;;;;;;5029439;28;20204;-83
2023/01/23 06:48:48;;;;;;;29.15;17.00;;;2.40;1.00;;;;;;5025688;28;20208;-83
2023/01/23 06:51:14;;;;;;;33.72;17.75;;;1.80;1.00;;;;;;5023068;28;20231;-83
2023/01/23 06:53:41;;;;;;;31.33;16.38;;;2.10;1.00;;;;;;5026523;28;20243;-82
2023/01/23 06:56:10;;;;;;;35.15;18.40;;;2.00;1.00;;;;;;5020493;28;20205;-83
2023/01/23 06:58:38;;;;;;;30.70;16.80;;;;;;;;;;5020418;28;20211;-81
2023/01/23 07:01:09;;;;;;;30.60;16.00;;;2.10;1.00;;;;;;5020278;28;20220;-81
2023/01/23 07:03:36;;;;;;;30.35;17.23;;;2.30;1.00;;;;;;5021608;28;20185;-81
2023/01/23 07:06:05;;;;;;;26.55;16.55;;;2.30;1.00;;;;;;5022005;28;20209;-80
2023/01/23 07:08:32;;;;;;;27.75;17.00;;;2.50;1.00;;;;;;5021588;28;20240;-81
2023/01/23 07:11:02;;;;;;;29.73;19.00;;;2.10;1.00;;;;;;5020845;28;20228;-81
2023/01/23 07:13:30;;;;;;;25.23;16.33;;;2.40;1.00;;;;;;5021964;28;20204;-80
2023/01/23 07:15:58;;;;;;;31.60;18.45;;;1.80;1.00;;;;;;5022442;28;20690;-82
2023/01/23 07:18:27;;;;;;;28.50;17.20;;;2.10;1.00;;;;;;5021807;28;20193;-81
2023/01/23 07:20:54;;;;;;;33.42;18.25;;;2.10;1.00;;;;;;5033009;28;20224;-80
2023/01/23 07:23:21;;;;;;;27.52;15.38;;;2.30;1.00;;;;;;5033063;28;20299;-80
2023/01/23 07:25:48;;;;;;;29.42;17.42;;;;;;;;;;5022221;28;20212;-81
2023/01/23 07:28:15;;;;;;;29.77;16.50;;;;;;;;;;5019669;28;20243;-80
2023/01/23 07:30:43;;;;;;;30.65;17.10;;;1.80;1.00;;;;;;5021125;28;20236;-81
2023/01/23 07:33:11;;;;;;;31.17;16.67;;;2.30;1.00;;;;;;5018970;28;20342;-80
2023/01/23 07:35:38;;;;;;;25.50;16.08;;;2.10;1.00;;;;;;5019537;28;20220;-80
2023/01/23 07:38:05;;;;;;;28.67;16.35;;;1.90;1.00;;;;;;5024129;28;20214;-80
2023/01/23 07:40:32;;;;;;;27.48;14.65;;;2.30;1.00;;;;;;5033547;28;20295;-81
2023/01/23 07:42:59;;;;;;;28.23;16.58;;;;;;;;;;5033446;28;20204;-81
2023/01/23 07:45:26;;;;;;;26.85;16.77;;;2.10;1.00;;;;;;5029357;28;20268;-80
2023/01/23 07:47:54;;;;;;;29.73;18.55;;;1.90;1.00;;;;;;5024457;28;20209;-80
2023/01/23 07:50:21;;;;;;;28.13;18.02;;;2.30;1.00;;;;;;5022418;28;20259;-82
2023/01/23 07:52:48;;;;;;;28.85;16.48;;;;;;;;;;5021197;28;20208;-80
2023/01/23 07:55:16;;;;;;;29.88;16.60;;;;;;;;;;5020531;28;20591;-80
2023/01/23 07:57:42;;;;;;;26.30;14.30;;;2.10;1.00;;;;;;5020756;28;20227;-80
2023/01/23 08:00:10;;;;;;;33.90;18.48;;;2.30;1.00;;;;;;5021392;28;20231;-81
2023/01/23 08:02:37;;;;;;;29.48;17.38;;;1.80;1.00;;;;;;5022143;28;20229;-81
2023/01/23 08:05:07;;;;;;;28.02;16.75;;;2.10;1.00;;;;;;5024020;28;20547;-80
2023/01/23 08:07:33;;;;;;;31.25;18.48;;;2.40;1.00;;;;;;5020893;28;20204;-83
2023/01/23 08:10:01;;;;;;;29.85;17.23;;;;;;;;;;5021092;28;20300;-82
2023/01/23 08:12:27;;;;;;;28.20;18.08;;;1.80;1.00;;;;;;5020602;28;20244;-81
2023/01/23 08:14:54;;;;;;;30.77;17.40;;;2.10;1.00;;;;;;5021077;28;20225;-80
2023/01/23 08:17:21;;;;;;;29.85;16.67;;;2.30;1.00;;;;;;5033184;28;20218;-80
2023/01/23 08:19:48;;;;;;;36.30;18.42;;;2.40;1.00;;;;;;5032148;28;20200;-81
2023/01/23 08:22:17;;;;;;;30.52;17.95;;;2.10;1.00;;;;;;5025063;28;20228;-80
2023/01/23 08:24:44;;;;;;;40.22;21.23;;;;;;;;;;5024052;28;20205;-80
2023/01/23 08:27:12;;;;;;;31.17;17.83;;;;;;;;;;5034042;28;20205;-80
2023/01/23 08:29:39;;;;;;;26.88;17.30;;;;;;;;;;5030467;28;20595;-80
2023/01/23 08:32:06;;;;;;;34.70;19.92;;;2.00;1.00;;;;;;5022843;28;20260;-81
2023/01/23 08:34:33;;;;;;;31.45;17.33;;;1.80;1.00;;;;;;5024901;28;20229;-80
2023/01/23 08:37:00;;;;;;;30.42;17.63;;;3.00;1.00;;;;;;5019232;28;20211;-80
2023/01/23 08:39:28;;;;;;;33.30;18.05;;;1.90;1.00;;;;;;5019604;28;20672;-81
2023/01/23 08:41:55;;;;;;;30.60;16.73;;;2.50;1.00;;;;;;5019078;28;20599;-81
2023/01/23 08:44:24;;;;;;;37.30;20.05;;;2.10;1.00;;;;;;5019389;28;20291;-81
2023/01/23 08:46:51;;;;;;;37.42;18.08;;;2.50;1.00;;;;;;5019147;28;20295;-81
2023/01/23 08:49:19;;;;;;;29.92;17.75;;;;;;;;;;5029474;28;20272;-80
2023/01/23 08:51:46;;;;;;;29.90;17.40;;;2.40;1.00;;;;;;5025257;28;20243;-81
2023/01/23 08:54:12;;;;;;;34.75;19.73;;;2.40;1.00;;;;;;5020492;28;20223;-81
2023/01/23 08:56:41;;;;;;;27.73;18.10;;;1.90;1.00;;;;;;5025139;28;20247;-81
2023/01/23 08:59:07;;;;;;;35.17;18.95;;;2.20;1.00;;;;;;5028847;28;20204;-80
2023/01/23 09:01:34;;;;;;;28.23;16.42;;;1.90;1.00;;;;;;5030969;28;20284;-81
2023/01/23 09:04:01;;;;;;;29.35;19.10;;;2.00;1.00;;;;;;5021179;28;20215;-81
2023/01/23 09:06:28;;;;;;;31.25;18.20;;;2.50;1.00;;;;;;5020184;28;20205;-81
2023/01/23 09:08:55;;;;;;;29.58;16.80;;;2.50;1.00;;;;;;5019599;28;20645;-81
2023/01/23 09:11:22;;;;;;;30.50;17.00;;;1.90;1.00;;;;;;5018937;28;20252;-81
2023/01/23 09:13:50;;;;;;;28.38;17.60;;;2.20;1.00;;;;;;5020293;28;20265;-81
2023/01/23 09:16:18;;;;;;;38.58;21.52;;;;;;;;;;5019538;28;20227;-81
2023/01/23 09:18:44;;;;;;;33.85;19.15;;;2.30;1.00;;;;;;5019819;28;20210;-81
2023/01/23 09:21:14;;;;;;;27.77;16.02;;;2.20;1.00;;;;;;5020475;28;20803;-82
2023/01/23 09:23:41;;;;;;;27.73;16.90;;;2.50;1.00;;;;;;5021234;28;20213;-81
2023/01/23 09:26:10;;;;;;;29.48;17.23;;;1.90;1.00;;;;;;5022822;28;20714;-81
2023/01/23 09:28:38;;;;;;;30.02;17.45;;;1.70;1.00;;;;;;5022197;28;20204;-81
2023/01/23 09:31:09;;;;;;;34.88;18.00;;;2.00;1.00;;;;;;5021074;28;20301;-81
2023/01/23 09:33:37;;;;;;;32.80;18.08;;;1.40;1.00;;;;;;5020556;28;20189;-82
2023/01/23 09:36:05;;;;;;;28.70;16.75;;;2.70;1.00;;;;;;5021083;28;20228;-82
2023/01/23 09:38:32;;;;;;;29.25;17.63;;;2.60;1.00;;;;;;5022251;28;20205;-82
2023/01/23 09:41:07;;;;;;;32.95;18.60;;;2.10;1.00;;;;;;5034899;28;20244;-83
2023/01/23 09:43:41;;;;;;;29.17;16.27;;;2.10;1.00;;;;;;5038984;28;20236;-82
2023/01/23 09:46:18;;;;;;;27.30;16.52;;;2.50;99.90;;;;;;5033391;28;20279;-80
2023/01/23 09:48:47;;;;;;;25.73;16.27;;;2.80;1.00;;;;;;5029142;28;20188;-81
2023/01/23 09:51:20;;;;;;;29.23;17.55;;;2.30;1.00;;;;;;5035887;28;20248;-81
2023/01/23 09:53:47;;;;;;;21.20;15.43;;;2.20;1.00;;;;;;5033827;28;20181;-80
2023/01/23 09:56:25;;;;;;;30.42;17.42;;;2.20;1.00;;;;;;5031176;28;20287;-81
2023/01/23 09:59:06;;;;;;;32.70;19.20;;;2.50;99.90;;;;;;5030747;28;20200;-81
2023/01/23 10:01:34;;;;;;;28.55;17.05;;;2.30;1.00;;;;;;5026661;28;20224;-82
2023/01/23 10:04:02;;;;;;;27.70;15.55;;;2.30;1.00;;;;;;5020008;28;20751;-81
2023/01/23 10:06:31;;;;;;;29.77;17.90;;;2.60;1.00;;;;;;5020141;28;20264;-81
2023/01/23 10:09:15;;;;;;;27.50;16.98;;;2.00;1.00;;;;;;5018961;28;20192;-81
2023/01/23 10:11:53;;;;;;;28.17;16.88;;;2.30;99.90;;;;;;5019181;28;20229;-81
2023/01/23 10:14:43;;;;;;;28.15;17.55;;;2.10;1.00;;;;;;5019715;28;20201;-82
2023/01/23 10:17:18;;;;;;;30.23;18.17;;;2.30;1.00;;;;;;5013083;28;20205;-82
2023/01/23 10:20:10;;;;;;;29.65;18.50;;;2.40;1.00;;;;;;5024172;28;20267;-81
2023/01/23 10:22:41;;;;;;;29.70;16.20;;;2.50;99.90;;;;;;5019540;28;20256;-81
2023/01/23 10:25:16;;;;;;;26.33;16.20;;;2.50;99.90;;;;;;5017583;28;20196;-81
2023/01/23 10:27:46;;;;;;;31.30;17.20;;;1.40;99.90;;;;;;5023866;28;20192;-81
2023/01/23 10:30:26;;;;;;;29.45;17.08;;;2.00;99.90;;;;;;5019455;28;20283;-82
2023/01/23 10:32:58;;;;;;;29.17;17.27;;;2.30;1.00;;;;;;5031056;28;20189;-81
2023/01/23 10:35:31;;;;;;;27.20;16.60;;;2.20;1.00;;;;;;5028601;28;20247;-80
2023/01/23 10:38:03;;;;;;;26.75;15.30;;;2.50;1.00;;;;;;5021338;28;20279;-81
2023/01/23 10:43:17;;;;;;;29.20;16.95;;;2.60;99.90;;;;;;5029266;28;20196;-81
2023/01/23 10:45:46;;;;;;;29.85;18.83;;;2.40;1.00;;;;;;5032626;28;20196;-80
2023/01/23 10:48:40;;;;;;;30.52;18.70;;;2.90;1.00;;;;;;5033440;28;20268;-79
2023/01/23 10:51:29;;;;;;;31.55;18.38;;;2.40;1.00;;;;;;5024652;28;20236;-80
2023/01/23 10:54:10;;;;;;;29.77;18.00;;;2.50;99.90;;;;;;5026415;28;20189;-80
2023/01/23 10:56:45;;;;;;;31.77;17.92;;;2.20;1.00;;;;;;5023751;28;20295;-82
2023/01/23 10:59:20;;;;;;;36.83;17.52;;;2.50;99.90;;;;;;5029383;28;20184;-80
2023/01/23 11:02:00;;;;;;;36.90;19.25;;;2.50;99.90;;;;;;5025531;28;20314;-80
2023/01/23 11:04:35;;;;;;;30.02;18.85;;;2.30;99.90;;;;;;5024164;28;20188;-80
2023/01/23 11:07:13;;;;;;;29.10;16.75;;;2.60;1.00;;;;;;5026144;28;20643;-80
2023/01/23 11:09:47;;;;;;;27.20;17.20;;;2.30;1.00;;;;;;5025557;28;20260;-81
2023/01/23 11:12:18;;;;;;;30.63;18.00;;;2.60;1.00;;;;;;5023130;28;20782;-80
2023/01/23 11:14:45;;;;;;;30.80;18.27;;;2.50;99.90;;;;;;5022602;28;20189;-81
2023/01/23 11:17:21;;;;;;;26.40;16.40;;;2.90;1.00;;;;;;5022763;28;20204;-81
2023/01/23 11:19:53;;;;;;;31.58;18.08;;;2.60;99.90;;;;;;5035391;28;20223;-81
2023/01/23 11:22:32;;;;;;;26.85;16.77;;;2.70;99.90;;;;;;5030487;28;20228;-81
2023/01/23 11:24:59;;;;;;;30.85;17.60;;;2.90;1.00;;;;;;5023999;28;20247;-81
2023/01/23 11:27:28;;;;;;;29.05;17.83;;;2.40;1.00;;;;;;5023581;28;20211;-81
2023/01/23 11:33:13;;;;;;;30.65;16.83;;;3.40;99.90;;;;;;5071133;22;20235;-85
2023/01/23 11:36:02;;;;;;;29.38;17.50;;;2.60;99.90;;;;;;5027933;28;20235;-84
2023/01/23 11:38:36;;;;;;;30.73;16.95;;;2.70;99.90;;;;;;5030041;28;20199;-82
2023/01/23 11:41:04;;;;;;;24.35;15.57;;;2.70;99.90;;;;;;5030248;28;20224;-84
2023/01/23 11:43:31;;;;;;;25.65;16.58;;;2.90;99.90;;;;;;5030469;28;20224;-84
2023/01/23 11:46:25;;;;;;;29.27;16.92;;;3.00;99.90;;;;;;5024200;28;20629;-83
2023/01/23 11:49:06;;;;;;;27.10;17.10;;;2.60;99.90;;;;;;5023657;28;20299;-84
2023/01/23 11:51:38;;;;;;;27.58;16.73;;;3.00;99.90;;;;;;5023837;28;20334;-84
2023/01/23 11:54:35;;;;;;;23.92;15.40;;;2.80;99.90;;;;;;5029057;28;20232;-84
2023/01/23 11:57:09;;;;;;;26.10;16.42;;;3.20;99.90;;;;;;5026006;28;20296;-85
2023/01/23 11:59:53;;;;;;;26.80;15.63;;;2.80;99.90;;;;;;5029620;28;20264;-83
2023/01/23 12:02:44;;;;;;;28.20;18.60;;;3.40;99.90;;;;;;5032898;28;20291;-82
2023/01/23 12:05:30;;;;;;;28.60;17.42;;;2.90;99.90;;;;;;5035828;28;20189;-85
2023/01/23 12:08:10;;;;;;;27.08;17.42;;;1.60;99.90;;;;;;5036385;28;20236;-84
2023/01/23 12:10:53;;;;;;;29.52;16.58;;;3.00;99.90;;;;;;5033131;28;20200;-84
2023/01/23 12:13:36;;;;;;;23.92;17.02;;;2.90;99.90;;;;;;5029597;28;20217;-84
2023/01/23 12:16:15;;;;;;;26.33;17.00;;;3.40;99.90;;;;;;5023719;28;20235;-85
2023/01/23 12:18:52;;;;;;;25.00;16.13;;;2.90;99.90;;;;;;5025185;28;20200;-85
2023/01/23 12:21:21;;;;;;;25.25;15.73;;;3.10;99.90;;;;;;5025763;28;20255;-85
2023/01/23 12:24:06;;;;;;;23.05;15.73;;;2.80;99.90;;;;;;5027754;28;20211;-84
2023/01/23 12:26:37;;;;;;;22.98;15.00;;;3.10;99.90;;;;;;5033942;28;20236;-83
2023/01/23 12:29:21;;;;;;;22.17;15.10;;;2.60;99.90;;;;;;5034304;28;20205;-83
2023/01/23 12:32:03;;;;;;;29.30;15.00;;;3.10;99.90;;;;;;5033675;28;20244;-84
2023/01/23 12:34:55;;;;;;;20.90;13.02;;;1.50;99.90;;;;;;5032040;28;20279;-84
2023/01/23 12:37:36;;;;;;;21.33;13.88;;;3.00;31.80;;;;;;5032238;28;20196;-85
2023/01/23 12:40:12;;;;;;;16.90;13.50;;;3.20;63.50;;;;;;5028340;28;20252;-85
2023/01/23 12:42:48;;;;;;;18.35;14.82;;;3.10;5.30;;;;;;5024770;28;20228;-84
2023/01/23 12:45:22;;;;;;;19.52;12.90;;;3.00;46.60;;;;;;5024423;28;20216;-85
2023/01/23 12:47:55;;;;;;;20.15;13.82;;;2.90;30.90;;;;;;5022482;28;20235;-84
2023/01/23 12:50:29;;;;;;;24.70;14.35;;;3.00;99.90;;;;;;5022989;28;20177;-84
2023/01/23 12:53:00;;;;;;;19.60;13.02;;;2.80;43.30;;;;;;5025021;28;20641;-84
2023/01/23 12:55:35;;;;;;;21.10;13.05;;;3.20;99.90;;;;;;5022632;28;20212;-85
2023/01/23 12:58:04;;;;;;;22.10;14.23;;;2.80;99.90;;;;;;5022415;28;20194;-85
2023/01/23 13:00:41;;;;;;;20.35;12.65;;;3.30;99.90;;;;;;5021749;28;20318;-85
2023/01/23 13:03:22;;;;;;;20.17;11.57;;;3.10;1.00;;;;;;5022627;28;20188;-84
2023/01/23 13:06:00;;;;;;;19.20;12.50;;;3.00;99.90;;;;;;5022731;28;20191;-84
2023/01/23 13:08:32;;;;;;;21.15;13.10;;;3.30;2.70;;;;;;5035164;28;20192;-84
2023/01/23 13:14:22;;;;;;;19.80;13.30;;;2.70;99.90;;;;;;4966906;28;20202;-83
2023/01/23 13:16:55;;;;;;;20.35;14.70;;;3.00;1.00;;;;;;4963558;29;20214;-83
2023/01/23 13:22:25;;;;;;;23.60;14.02;;;2.80;98.40;;;;;;4962486;28;20213;-84
2023/01/23 13:25:16;;;;;;;19.90;12.77;;;2.70;99.90;;;;;;4963126;29;20241;-86
2023/01/23 13:27:47;;;;;;;19.30;13.88;;;2.90;94.40;;;;;;5000469;28;20607;-85
2023/01/23 13:30:42;;;;;;;19.63;12.23;;;2.80;73.80;;;;;;5022991;28;20201;-84
2023/01/23 13:33:51;;;;;;;15.45;11.30;;;2.90;99.90;;;;;;5023834;28;20216;-82
2023/01/23 13:36:34;;;;;;;21.42;13.10;;;3.10;1.00;;;;;;5022659;28;20639;-84